Weather at Sunan Shuofang International Airport

Public forecast

Using degrees Celsius for public forecast. Weather courtesy of forecast.io.

Current aviation weather report (METAR) for Sunan Shuofang International Airport

Report is more than 6 hours old.

Retrieved 2021/08/12 09:00 UTC (4 months ago):

ZSWX 120900Z VRB01MPS 9999 FEW033 28/26 Q1005 NOSIG

Aviation forecast (TAF) for Sunan Shuofang International Airport

Forecast is more than 12 hours old.

Retrieved 2021-10-25 00:40 UTC (1 month ago):

TAF ZSWX 242102Z 2500/2524 05004MPS 6000 NSC TX22/2506Z TN10/2521Z